createdAt,value
2023-05-12T00:03:08.038Z,81.40
2023-05-12T00:08:11.928Z,81.40
2023-05-12T00:13:15.799Z,81.30
2023-05-12T00:18:20.973Z,81.10
2023-05-12T00:23:24.659Z,81.00
2023-05-12T00:28:28.111Z,81.20
2023-05-12T00:33:32.929Z,81.40
2023-05-12T00:38:37.355Z,82.00
2023-05-12T00:43:40.876Z,81.40
2023-05-12T00:48:46.245Z,81.90
2023-05-12T00:53:51.423Z,82.20
2023-05-12T00:58:54.860Z,81.80
2023-05-12T01:04:00.185Z,81.60
2023-05-12T01:09:04.268Z,81.80
2023-05-12T01:14:07.689Z,81.50
2023-05-12T01:19:41.702Z,82.10
2023-05-12T01:24:55.205Z,82.10
2023-05-12T01:30:03.254Z,82.30
2023-05-12T01:35:11.335Z,81.90
2023-05-12T01:40:19.806Z,82.50
2023-05-12T01:45:25.571Z,81.90
2023-05-12T01:50:30.450Z,82.10
2023-05-12T01:55:34.846Z,82.30
2023-05-12T02:00:40.205Z,82.40
2023-05-12T02:05:49.625Z,82.40
2023-05-12T02:11:07.045Z,82.40
2023-05-12T02:16:12.699Z,82.60
2023-05-12T02:21:17.217Z,82.60
2023-05-12T02:26:21.229Z,82.60
2023-05-12T02:31:26.511Z,82.50
2023-05-12T02:36:30.146Z,82.40
2023-05-12T02:41:33.560Z,82.60
2023-05-12T02:46:38.715Z,82.60
2023-05-12T02:56:58.428Z,81.70
2023-05-12T03:02:03.241Z,82.10
2023-05-12T03:07:08.852Z,82.20
2023-05-12T03:12:16.735Z,82.20
2023-05-12T03:17:22.052Z,82.30
2023-05-12T03:22:27.713Z,82.50
2023-05-12T03:27:36.462Z,82.50
2023-05-12T03:32:42.043Z,82.20
2023-05-12T03:37:49.086Z,81.60
2023-05-12T03:42:55.711Z,81.50
2023-05-12T03:48:00.592Z,82.10
2023-05-12T03:53:05.962Z,82.00
2023-05-12T03:58:15.810Z,81.90
2023-05-12T04:03:21.758Z,81.90
2023-05-12T04:08:27.462Z,81.90
2023-05-12T04:13:34.250Z,81.90
2023-05-12T04:18:39.221Z,81.90
2023-05-12T04:23:46.241Z,81.90
2023-05-12T04:28:53.438Z,81.90
2023-05-12T04:33:58.567Z,82.00
2023-05-12T04:39:03.837Z,82.00
2023-05-12T04:44:12.466Z,82.10
2023-05-12T04:49:18.429Z,81.90
2023-05-12T04:54:26.049Z,82.00
2023-05-12T04:59:34.791Z,82.00
2023-05-12T05:04:39.820Z,82.00
2023-05-12T05:09:45.658Z,82.00
2023-05-12T05:14:52.678Z,82.00
2023-05-12T05:19:59.564Z,82.00
2023-05-12T05:25:11.265Z,82.10
2023-05-12T05:30:17.849Z,82.10
2023-05-12T05:35:23.878Z,82.20
2023-05-12T05:40:36.046Z,82.10
2023-05-12T05:45:51.953Z,82.20
2023-05-12T05:51:00.670Z,82.30
2023-05-12T05:56:06.282Z,82.00
2023-05-12T06:01:14.441Z,81.80
2023-05-12T06:06:19.771Z,80.40
2023-05-12T06:11:24.796Z,79.60
2023-05-12T06:16:31.393Z,79.00
2023-05-12T06:21:36.349Z,78.40
2023-05-12T06:26:41.703Z,77.70
2023-05-12T06:31:48.126Z,77.40
2023-05-12T06:36:55.123Z,76.90
2023-05-12T06:42:02.437Z,76.80
2023-05-12T06:47:20.170Z,76.50
2023-05-12T06:52:27.138Z,76.40
2023-05-12T06:57:32.051Z,76.00
2023-05-12T07:02:38.321Z,76.50
2023-05-12T07:07:43.162Z,77.10
2023-05-12T07:12:48.628Z,75.00
2023-05-12T07:17:56.081Z,73.90
2023-05-12T07:23:01.220Z,73.60
2023-05-12T07:28:06.188Z,73.80
2023-05-12T07:33:13.400Z,73.40
2023-05-12T07:38:18.424Z,74.80
2023-05-12T07:43:23.233Z,75.10
2023-05-12T07:48:30.176Z,75.50
2023-05-12T07:53:35.153Z,75.70
2023-05-12T07:58:40.384Z,74.90
2023-05-12T08:03:46.855Z,74.90
2023-05-12T08:08:51.807Z,75.70
2023-05-12T08:13:56.680Z,75.80
2023-05-12T08:19:02.888Z,76.20
2023-05-12T08:24:08.285Z,76.20
2023-05-12T08:29:13.243Z,76.30
2023-05-12T08:34:19.927Z,76.30
2023-05-12T08:39:25.245Z,76.50
2023-05-12T08:44:31.533Z,76.60
2023-05-12T08:49:39.131Z,76.80
2023-05-12T08:54:55.043Z,76.80
2023-05-12T09:00:02.287Z,76.80
2023-05-12T09:05:09.986Z,76.90
2023-05-12T09:10:33.575Z,76.90
2023-05-12T09:15:46.377Z,77.10
2023-05-12T09:20:52.974Z,77.10
2023-05-12T09:26:04.245Z,77.10
2023-05-12T09:31:20.961Z,77.20
2023-05-12T09:36:28.350Z,77.20
2023-05-12T09:41:33.633Z,77.10
2023-05-12T09:46:40.010Z,77.20
2023-05-12T09:51:46.635Z,77.20
2023-05-12T09:56:52.089Z,77.20
2023-05-12T10:02:02.084Z,77.10
2023-05-12T10:07:12.220Z,77.30
2023-05-12T10:12:19.053Z,77.30
2023-05-12T10:17:24.551Z,77.20
2023-05-12T10:22:32.960Z,77.30
2023-05-12T10:27:38.266Z,77.20
2023-05-12T10:32:43.055Z,77.90
2023-05-12T10:37:49.839Z,77.30
2023-05-12T10:42:54.676Z,77.30
2023-05-12T10:48:10.212Z,77.20
2023-05-12T10:53:18.350Z,77.30
2023-05-12T10:58:23.491Z,77.30
2023-05-12T11:03:29.202Z,77.20
2023-05-12T11:08:40.092Z,77.10
2023-05-12T11:13:47.375Z,77.20
2023-05-12T11:19:05.825Z,77.20
2023-05-12T11:24:15.300Z,77.20
2023-05-12T11:29:21.256Z,77.10
2023-05-12T11:34:28.203Z,77.20
2023-05-12T11:39:34.801Z,77.20
2023-05-12T11:44:49.228Z,77.10
2023-05-12T11:49:57.761Z,77.10
2023-05-12T11:55:06.298Z,77.10
2023-05-12T12:00:13.357Z,77.10
2023-05-12T12:05:22.930Z,77.20
2023-05-12T12:10:29.476Z,77.10
2023-05-12T12:15:34.403Z,77.20
2023-05-12T12:20:39.501Z,77.00
2023-05-12T12:25:47.658Z,77.10
2023-05-12T12:30:54.132Z,77.00
2023-05-12T12:35:59.147Z,77.00
2023-05-12T12:41:05.976Z,77.00
2023-05-12T12:46:11.301Z,77.00
2023-05-12T12:51:16.357Z,77.00
2023-05-12T12:56:24.982Z,76.90
2023-05-12T13:01:30.379Z,76.80
2023-05-12T13:06:36.133Z,76.90
2023-05-12T13:11:42.795Z,76.80
2023-05-12T13:16:48.557Z,76.80
2023-05-12T13:21:54.145Z,76.80
2023-05-12T13:27:00.589Z,76.80
2023-05-12T13:32:06.262Z,77.40
2023-05-12T13:37:11.506Z,76.60
2023-05-12T13:42:18.445Z,76.50
2023-05-12T13:47:23.312Z,76.40
2023-05-12T13:52:28.365Z,76.60
2023-05-12T13:57:36.014Z,76.60
2023-05-12T14:02:41.242Z,76.70
2023-05-12T14:07:46.120Z,76.60
2023-05-12T14:12:52.570Z,76.60
2023-05-12T14:17:57.626Z,76.60
2023-05-12T14:23:02.530Z,76.60
2023-05-12T14:28:09.194Z,76.50
2023-05-12T14:33:14.333Z,76.40
2023-05-12T14:38:19.218Z,76.40
2023-05-12T14:43:25.624Z,76.40
2023-05-12T14:48:31.913Z,76.50
2023-05-12T14:53:37.159Z,76.30
2023-05-12T14:58:43.769Z,76.20
2023-05-12T15:03:48.927Z,76.20
2023-05-12T15:08:54.958Z,76.20
2023-05-12T15:14:04.502Z,76.00
2023-05-12T15:19:09.826Z,76.00
2023-05-12T15:24:14.844Z,75.90
2023-05-12T15:29:22.746Z,76.20
2023-05-12T15:34:27.599Z,76.20
2023-05-12T15:39:34.130Z,76.10
2023-05-12T15:44:44.751Z,76.00
2023-05-12T15:49:51.181Z,76.30
2023-05-12T15:54:56.589Z,75.50
2023-05-12T16:00:05.717Z,75.50
2023-05-12T16:05:20.173Z,75.70
2023-05-12T16:10:26.868Z,76.50
2023-05-12T16:15:34.850Z,76.90
2023-05-12T16:20:42.064Z,76.70
2023-05-12T16:25:49.365Z,76.40
2023-05-12T16:30:57.552Z,77.50
2023-05-12T16:36:03.851Z,76.40
2023-05-12T16:41:10.100Z,76.20
2023-05-12T16:46:18.314Z,76.80
2023-05-12T16:51:24.876Z,77.00
2023-05-12T16:56:31.165Z,76.90
2023-05-12T17:01:39.918Z,76.30
2023-05-12T17:06:44.782Z,76.80
2023-05-12T17:11:49.876Z,76.10
2023-05-12T17:16:56.442Z,76.00
2023-05-12T17:22:01.686Z,75.90
2023-05-12T17:27:07.162Z,76.10
2023-05-12T17:32:15.281Z,76.20
2023-05-12T17:37:20.646Z,77.30
2023-05-12T17:42:28.932Z,77.40
2023-05-12T17:47:35.190Z,76.60
2023-05-12T17:52:40.691Z,76.40
2023-05-12T17:57:45.515Z,76.80
2023-05-12T18:02:52.513Z,77.00
2023-05-12T18:07:57.478Z,77.10
2023-05-12T18:13:02.849Z,76.90
2023-05-12T18:18:10.401Z,76.50
2023-05-12T18:23:14.981Z,76.30
2023-05-12T18:28:21.541Z,76.30
2023-05-12T18:33:31.658Z,76.80
2023-05-12T18:38:36.697Z,77.50
2023-05-12T18:43:45.089Z,77.50
2023-05-12T18:48:55.452Z,77.10
2023-05-12T18:54:01.409Z,77.00
2023-05-12T18:59:07.809Z,77.20
2023-05-12T19:04:14.894Z,77.70
2023-05-12T19:09:20.780Z,78.10
2023-05-12T19:14:25.933Z,78.20
2023-05-12T19:19:32.305Z,78.30
2023-05-12T19:24:38.247Z,78.40
2023-05-12T19:29:43.058Z,78.50
2023-05-12T19:34:51.246Z,78.70
2023-05-12T19:39:55.741Z,78.60
2023-05-12T19:45:01.068Z,78.70
2023-05-12T19:50:09.760Z,78.70
2023-05-12T19:55:13.726Z,78.70
2023-05-12T20:00:22.335Z,78.70
2023-05-12T20:05:30.125Z,78.70
2023-05-12T20:10:34.965Z,78.80
2023-05-12T20:15:40.379Z,78.90
2023-05-12T20:20:46.910Z,78.80
2023-05-12T20:25:53.042Z,78.70
2023-05-12T20:30:58.789Z,78.80
2023-05-12T20:36:05.609Z,79.50
2023-05-12T20:41:11.727Z,78.70
2023-05-12T20:46:17.160Z,78.80
2023-05-12T20:51:23.914Z,78.60
2023-05-12T20:56:28.788Z,78.90
2023-05-12T21:01:33.818Z,78.90
2023-05-12T21:06:40.581Z,78.70
2023-05-12T21:11:45.441Z,79.30
2023-05-12T21:16:50.892Z,79.40
2023-05-12T21:21:57.263Z,79.50
2023-05-12T21:27:04.840Z,79.60
2023-05-12T21:32:09.851Z,79.90
2023-05-12T21:37:17.807Z,79.90
2023-05-12T21:42:24.650Z,80.00
2023-05-12T21:47:30.664Z,80.10
2023-05-12T21:52:39.948Z,80.40
2023-05-12T21:57:46.628Z,80.40
2023-05-12T22:02:51.915Z,81.00
2023-05-12T22:07:58.574Z,81.40
2023-05-12T22:13:03.538Z,81.40
2023-05-12T22:18:08.861Z,81.60
2023-05-12T22:23:15.306Z,81.60
2023-05-12T22:28:21.223Z,82.40
2023-05-12T22:33:26.637Z,81.40
2023-05-12T22:38:33.211Z,81.60
2023-05-12T22:43:38.084Z,82.00
2023-05-12T22:48:43.472Z,81.60
2023-05-12T22:53:49.648Z,82.40
2023-05-12T22:58:54.680Z,81.90
2023-05-12T23:03:59.822Z,81.40
2023-05-12T23:09:06.191Z,81.60
2023-05-12T23:14:11.663Z,81.70
2023-05-12T23:19:16.936Z,81.60
2023-05-12T23:24:25.250Z,81.80
2023-05-12T23:29:31.186Z,81.60
2023-05-12T23:34:36.635Z,81.20
2023-05-12T23:39:44.971Z,81.40
2023-05-12T23:44:50.628Z,81.90
2023-05-12T23:49:55.846Z,81.70
2023-05-12T23:55:02.593Z,81.40
